sensor_id;sensor_type;location;lat;lon;timestamp;temperature;humidity
13707;DHT22;6925;47.816;13.072;2023-05-29T00:00:33;17.30;55.10
13707;DHT22;6925;47.816;13.072;2023-05-29T00:03:00;17.20;54.90
13707;DHT22;6925;47.816;13.072;2023-05-29T00:05:27;17.10;55.50
13707;DHT22;6925;47.816;13.072;2023-05-29T00:07:54;17.10;55.40
13707;DHT22;6925;47.816;13.072;2023-05-29T00:10:21;17.10;55.50
13707;DHT22;6925;47.816;13.072;2023-05-29T00:12:49;17.00;55.50
13707;DHT22;6925;47.816;13.072;2023-05-29T00:15:16;17.00;55.70
13707;DHT22;6925;47.816;13.072;2023-05-29T00:17:43;17.00;56.00
13707;DHT22;6925;47.816;13.072;2023-05-29T00:20:11;17.00;55.80
13707;DHT22;6925;47.816;13.072;2023-05-29T00:22:39;17.00;55.80
13707;DHT22;6925;47.816;13.072;2023-05-29T00:25:06;17.00;55.80
13707;DHT22;6925;47.816;13.072;2023-05-29T00:27:33;17.00;55.90
13707;DHT22;6925;47.816;13.072;2023-05-29T00:30:03;17.00;55.90
13707;DHT22;6925;47.816;13.072;2023-05-29T00:32:30;16.90;56.10
13707;DHT22;6925;47.816;13.072;2023-05-29T00:34:57;16.90;56.00
13707;DHT22;6925;47.816;13.072;2023-05-29T00:37:24;16.90;56.40
13707;DHT22;6925;47.816;13.072;2023-05-29T00:39:51;16.90;56.20
13707;DHT22;6925;47.816;13.072;2023-05-29T00:42:18;16.80;56.20
13707;DHT22;6925;47.816;13.072;2023-05-29T00:44:45;16.80;56.40
13707;DHT22;6925;47.816;13.072;2023-05-29T00:47:13;16.80;56.30
13707;DHT22;6925;47.816;13.072;2023-05-29T00:49:41;16.80;56.60
13707;DHT22;6925;47.816;13.072;2023-05-29T00:52:08;16.70;56.90
13707;DHT22;6925;47.816;13.072;2023-05-29T00:54:36;16.70;57.30
13707;DHT22;6925;47.816;13.072;2023-05-29T00:57:04;16.70;57.20
13707;DHT22;6925;47.816;13.072;2023-05-29T00:59:33;16.70;57.40
13707;DHT22;6925;47.816;13.072;2023-05-29T01:02:01;16.70;57.40
13707;DHT22;6925;47.816;13.072;2023-05-29T01:04:30;16.60;57.50
13707;DHT22;6925;47.816;13.072;2023-05-29T01:07:00;16.60;57.50
13707;DHT22;6925;47.816;13.072;2023-05-29T01:09:28;16.60;57.10
13707;DHT22;6925;47.816;13.072;2023-05-29T01:12:01;16.50;57.50
13707;DHT22;6925;47.816;13.072;2023-05-29T01:17:24;16.50;57.50
13707;DHT22;6925;47.816;13.072;2023-05-29T01:20:08;16.50;57.60
13707;DHT22;6925;47.816;13.072;2023-05-29T01:22:54;16.50;57.60
13707;DHT22;6925;47.816;13.072;2023-05-29T01:25:33;16.50;57.70
13707;DHT22;6925;47.816;13.072;2023-05-29T01:28:04;16.40;57.60
13707;DHT22;6925;47.816;13.072;2023-05-29T01:30:33;16.40;57.90
13707;DHT22;6925;47.816;13.072;2023-05-29T01:33:01;16.40;58.00
13707;DHT22;6925;47.816;13.072;2023-05-29T01:35:29;16.40;57.80
13707;DHT22;6925;47.816;13.072;2023-05-29T01:37:56;16.40;57.70
13707;DHT22;6925;47.816;13.072;2023-05-29T01:40:23;16.40;58.10
13707;DHT22;6925;47.816;13.072;2023-05-29T01:42:50;16.40;58.10
13707;DHT22;6925;47.816;13.072;2023-05-29T01:45:19;16.40;58.00
13707;DHT22;6925;47.816;13.072;2023-05-29T01:47:46;16.30;58.00
13707;DHT22;6925;47.816;13.072;2023-05-29T01:50:15;16.30;58.20
13707;DHT22;6925;47.816;13.072;2023-05-29T01:52:44;16.20;58.30
13707;DHT22;6925;47.816;13.072;2023-05-29T01:55:11;16.20;58.10
13707;DHT22;6925;47.816;13.072;2023-05-29T01:57:38;16.10;58.30
13707;DHT22;6925;47.816;13.072;2023-05-29T02:00:08;16.10;58.60
13707;DHT22;6925;47.816;13.072;2023-05-29T02:02:38;16.10;58.80
13707;DHT22;6925;47.816;13.072;2023-05-29T02:05:07;16.10;58.80
13707;DHT22;6925;47.816;13.072;2023-05-29T02:07:34;16.10;59.00
13707;DHT22;6925;47.816;13.072;2023-05-29T02:10:02;16.10;59.10
13707;DHT22;6925;47.816;13.072;2023-05-29T02:12:29;16.10;59.10
13707;DHT22;6925;47.816;13.072;2023-05-29T02:14:56;16.00;59.20
13707;DHT22;6925;47.816;13.072;2023-05-29T02:17:23;16.00;59.10
13707;DHT22;6925;47.816;13.072;2023-05-29T02:19:52;16.00;59.10
13707;DHT22;6925;47.816;13.072;2023-05-29T02:22:19;15.90;59.10
13707;DHT22;6925;47.816;13.072;2023-05-29T02:24:46;15.90;59.20
13707;DHT22;6925;47.816;13.072;2023-05-29T02:27:13;15.90;59.60
13707;DHT22;6925;47.816;13.072;2023-05-29T02:29:40;15.90;60.20
13707;DHT22;6925;47.816;13.072;2023-05-29T02:32:07;15.90;59.90
13707;DHT22;6925;47.816;13.072;2023-05-29T02:34:34;15.90;59.90
13707;DHT22;6925;47.816;13.072;2023-05-29T02:37:03;15.80;59.90
13707;DHT22;6925;47.816;13.072;2023-05-29T02:39:30;15.80;60.00
13707;DHT22;6925;47.816;13.072;2023-05-29T02:41:57;15.80;60.30
13707;DHT22;6925;47.816;13.072;2023-05-29T02:44:24;15.80;59.90
13707;DHT22;6925;47.816;13.072;2023-05-29T02:46:51;15.80;60.20
13707;DHT22;6925;47.816;13.072;2023-05-29T02:49:18;15.70;60.10
13707;DHT22;6925;47.816;13.072;2023-05-29T02:51:45;15.70;60.00
13707;DHT22;6925;47.816;13.072;2023-05-29T02:54:14;15.70;60.50
13707;DHT22;6925;47.816;13.072;2023-05-29T02:56:41;15.70;60.50
13707;DHT22;6925;47.816;13.072;2023-05-29T02:59:08;15.70;60.70
13707;DHT22;6925;47.816;13.072;2023-05-29T03:01:35;15.70;60.40
13707;DHT22;6925;47.816;13.072;2023-05-29T03:04:03;15.70;60.30
13707;DHT22;6925;47.816;13.072;2023-05-29T03:06:30;15.70;60.50
13707;DHT22;6925;47.816;13.072;2023-05-29T03:08:57;15.60;60.50
13707;DHT22;6925;47.816;13.072;2023-05-29T03:11:26;15.60;60.50
13707;DHT22;6925;47.816;13.072;2023-05-29T03:13:54;15.60;60.60
13707;DHT22;6925;47.816;13.072;2023-05-29T03:16:21;15.60;60.70
13707;DHT22;6925;47.816;13.072;2023-05-29T03:18:48;15.60;60.60
13707;DHT22;6925;47.816;13.072;2023-05-29T03:21:16;15.50;60.80
13707;DHT22;6925;47.816;13.072;2023-05-29T03:23:43;15.40;60.90
13707;DHT22;6925;47.816;13.072;2023-05-29T03:26:10;15.40;61.10
13707;DHT22;6925;47.816;13.072;2023-05-29T03:28:39;15.30;61.50
13707;DHT22;6925;47.816;13.072;2023-05-29T03:31:06;15.40;61.70
13707;DHT22;6925;47.816;13.072;2023-05-29T03:33:35;15.40;61.80
13707;DHT22;6925;47.816;13.072;2023-05-29T03:36:03;15.50;61.70
13707;DHT22;6925;47.816;13.072;2023-05-29T03:38:30;15.50;61.60
13707;DHT22;6925;47.816;13.072;2023-05-29T03:40:57;15.40;61.50
13707;DHT22;6925;47.816;13.072;2023-05-29T03:43:24;15.40;61.20
13707;DHT22;6925;47.816;13.072;2023-05-29T03:45:52;15.30;61.50
13707;DHT22;6925;47.816;13.072;2023-05-29T03:48:19;15.20;62.00
13707;DHT22;6925;47.816;13.072;2023-05-29T03:50:47;15.20;62.30
13707;DHT22;6925;47.816;13.072;2023-05-29T03:53:14;15.30;62.70
13707;DHT22;6925;47.816;13.072;2023-05-29T03:55:41;15.30;62.90
13707;DHT22;6925;47.816;13.072;2023-05-29T03:58:08;15.30;62.70
13707;DHT22;6925;47.816;13.072;2023-05-29T04:00:38;15.30;62.20
13707;DHT22;6925;47.816;13.072;2023-05-29T04:03:06;15.30;62.90
13707;DHT22;6925;47.816;13.072;2023-05-29T04:05:33;15.30;62.70
13707;DHT22;6925;47.816;13.072;2023-05-29T04:08:00;15.30;63.10
13707;DHT22;6925;47.816;13.072;2023-05-29T04:10:30;15.40;63.30
13707;DHT22;6925;47.816;13.072;2023-05-29T04:12:59;15.40;63.00
13707;DHT22;6925;47.816;13.072;2023-05-29T04:15:26;15.40;63.00
13707;DHT22;6925;47.816;13.072;2023-05-29T04:17:53;15.40;62.80
13707;DHT22;6925;47.816;13.072;2023-05-29T04:20:22;15.40;62.80
13707;DHT22;6925;47.816;13.072;2023-05-29T04:22:49;15.40;62.90
13707;DHT22;6925;47.816;13.072;2023-05-29T04:25:16;15.40;62.60
13707;DHT22;6925;47.816;13.072;2023-05-29T04:27:43;15.40;62.90
13707;DHT22;6925;47.816;13.072;2023-05-29T04:30:15;15.30;62.90
13707;DHT22;6925;47.816;13.072;2023-05-29T04:32:43;15.30;62.90
13707;DHT22;6925;47.816;13.072;2023-05-29T04:35:10;15.30;63.10
13707;DHT22;6925;47.816;13.072;2023-05-29T04:37:38;15.30;63.20
13707;DHT22;6925;47.816;13.072;2023-05-29T04:40:07;15.30;63.30
13707;DHT22;6925;47.816;13.072;2023-05-29T04:42:35;15.40;63.20
13707;DHT22;6925;47.816;13.072;2023-05-29T04:45:03;15.40;63.40
13707;DHT22;6925;47.816;13.072;2023-05-29T04:47:31;15.40;63.30
13707;DHT22;6925;47.816;13.072;2023-05-29T04:49:59;15.50;64.30
13707;DHT22;6925;47.816;13.072;2023-05-29T04:52:26;15.40;63.60
13707;DHT22;6925;47.816;13.072;2023-05-29T04:54:55;15.50;63.50
13707;DHT22;6925;47.816;13.072;2023-05-29T04:57:23;15.50;64.20
13707;DHT22;6925;47.816;13.072;2023-05-29T04:59:50;15.60;64.20
13707;DHT22;6925;47.816;13.072;2023-05-29T05:02:17;15.70;64.20
13707;DHT22;6925;47.816;13.072;2023-05-29T05:04:44;15.80;64.20
13707;DHT22;6925;47.816;13.072;2023-05-29T05:07:11;15.80;65.70
13707;DHT22;6925;47.816;13.072;2023-05-29T05:09:38;15.80;64.20
13707;DHT22;6925;47.816;13.072;2023-05-29T05:12:07;15.90;64.00
13707;DHT22;6925;47.816;13.072;2023-05-29T05:14:34;15.90;63.70
13707;DHT22;6925;47.816;13.072;2023-05-29T05:17:01;15.90;63.90
13707;DHT22;6925;47.816;13.072;2023-05-29T05:19:29;16.00;64.80
13707;DHT22;6925;47.816;13.072;2023-05-29T05:21:56;16.00;64.90
13707;DHT22;6925;47.816;13.072;2023-05-29T05:24:23;16.00;64.30
13707;DHT22;6925;47.816;13.072;2023-05-29T05:26:50;16.00;64.10
13707;DHT22;6925;47.816;13.072;2023-05-29T05:29:18;16.00;64.70
13707;DHT22;6925;47.816;13.072;2023-05-29T05:31:46;16.10;64.70
13707;DHT22;6925;47.816;13.072;2023-05-29T05:34:13;16.20;64.60
13707;DHT22;6925;47.816;13.072;2023-05-29T05:36:40;16.20;64.80
13707;DHT22;6925;47.816;13.072;2023-05-29T05:39:07;16.30;64.00
13707;DHT22;6925;47.816;13.072;2023-05-29T05:41:34;16.20;64.30
13707;DHT22;6925;47.816;13.072;2023-05-29T05:44:01;16.30;64.70
13707;DHT22;6925;47.816;13.072;2023-05-29T05:46:30;16.30;64.40
13707;DHT22;6925;47.816;13.072;2023-05-29T05:48:57;16.40;64.50
13707;DHT22;6925;47.816;13.072;2023-05-29T05:51:24;16.50;64.40
13707;DHT22;6925;47.816;13.072;2023-05-29T05:53:51;16.50;65.30
13707;DHT22;6925;47.816;13.072;2023-05-29T05:56:18;16.60;65.80
13707;DHT22;6925;47.816;13.072;2023-05-29T05:58:45;16.70;65.90
13707;DHT22;6925;47.816;13.072;2023-05-29T06:01:13;16.80;66.20
13707;DHT22;6925;47.816;13.072;2023-05-29T06:03:42;16.80;66.60
13707;DHT22;6925;47.816;13.072;2023-05-29T06:06:09;16.90;65.00
13707;DHT22;6925;47.816;13.072;2023-05-29T06:08:36;16.80;64.80
13707;DHT22;6925;47.816;13.072;2023-05-29T06:11:03;16.70;64.80
13707;DHT22;6925;47.816;13.072;2023-05-29T06:13:30;16.70;65.50
13707;DHT22;6925;47.816;13.072;2023-05-29T06:15:57;16.80;66.20
13707;DHT22;6925;47.816;13.072;2023-05-29T06:18:24;16.80;65.70
13707;DHT22;6925;47.816;13.072;2023-05-29T06:20:53;16.90;65.20
13707;DHT22;6925;47.816;13.072;2023-05-29T06:23:20;16.90;65.90
13707;DHT22;6925;47.816;13.072;2023-05-29T06:25:47;16.90;66.20
13707;DHT22;6925;47.816;13.072;2023-05-29T06:28:14;16.90;65.50
13707;DHT22;6925;47.816;13.072;2023-05-29T06:30:42;17.00;65.80
13707;DHT22;6925;47.816;13.072;2023-05-29T06:33:09;17.00;65.80
13707;DHT22;6925;47.816;13.072;2023-05-29T06:35:36;17.10;65.80
13707;DHT22;6925;47.816;13.072;2023-05-29T06:38:04;17.10;65.90
13707;DHT22;6925;47.816;13.072;2023-05-29T06:40:31;17.20;66.60
13707;DHT22;6925;47.816;13.072;2023-05-29T06:42:58;17.30;66.60
13707;DHT22;6925;47.816;13.072;2023-05-29T06:45:26;17.40;67.10
13707;DHT22;6925;47.816;13.072;2023-05-29T06:47:53;17.50;66.20
13707;DHT22;6925;47.816;13.072;2023-05-29T06:50:20;17.60;66.30
13707;DHT22;6925;47.816;13.072;2023-05-29T06:52:47;17.60;65.80
13707;DHT22;6925;47.816;13.072;2023-05-29T06:55:16;17.60;65.10
13707;DHT22;6925;47.816;13.072;2023-05-29T06:57:43;17.60;65.80
13707;DHT22;6925;47.816;13.072;2023-05-29T07:00:10;17.70;65.80
13707;DHT22;6925;47.816;13.072;2023-05-29T07:02:38;17.60;64.80
13707;DHT22;6925;47.816;13.072;2023-05-29T07:05:05;17.70;64.90
13707;DHT22;6925;47.816;13.072;2023-05-29T07:07:32;17.70;65.20
13707;DHT22;6925;47.816;13.072;2023-05-29T07:09:59;17.70;65.20
13707;DHT22;6925;47.816;13.072;2023-05-29T07:12:27;17.70;65.40
13707;DHT22;6925;47.816;13.072;2023-05-29T07:14:55;17.80;65.00
13707;DHT22;6925;47.816;13.072;2023-05-29T07:17:22;17.80;65.50
13707;DHT22;6925;47.816;13.072;2023-05-29T07:19:50;17.90;65.20
13707;DHT22;6925;47.816;13.072;2023-05-29T07:22:17;18.00;65.20
13707;DHT22;6925;47.816;13.072;2023-05-29T07:24:45;18.00;64.20
13707;DHT22;6925;47.816;13.072;2023-05-29T07:27:12;18.10;65.40
13707;DHT22;6925;47.816;13.072;2023-05-29T07:29:41;18.20;65.00
13707;DHT22;6925;47.816;13.072;2023-05-29T07:32:09;18.20;64.50
13707;DHT22;6925;47.816;13.072;2023-05-29T07:34:37;18.30;65.30
13707;DHT22;6925;47.816;13.072;2023-05-29T07:37:05;18.40;65.00
13707;DHT22;6925;47.816;13.072;2023-05-29T07:39:34;18.40;65.60
13707;DHT22;6925;47.816;13.072;2023-05-29T07:42:02;18.50;64.80
13707;DHT22;6925;47.816;13.072;2023-05-29T07:44:29;18.60;65.00
13707;DHT22;6925;47.816;13.072;2023-05-29T07:46:58;18.70;64.60
13707;DHT22;6925;47.816;13.072;2023-05-29T07:49:25;18.70;64.40
13707;DHT22;6925;47.816;13.072;2023-05-29T07:51:53;18.80;64.20
13707;DHT22;6925;47.816;13.072;2023-05-29T07:54:20;18.80;63.30
13707;DHT22;6925;47.816;13.072;2023-05-29T07:56:48;18.80;64.20
13707;DHT22;6925;47.816;13.072;2023-05-29T07:59:15;18.80;65.30
13707;DHT22;6925;47.816;13.072;2023-05-29T08:01:42;18.90;65.40
13707;DHT22;6925;47.816;13.072;2023-05-29T08:04:11;18.90;63.90
13707;DHT22;6925;47.816;13.072;2023-05-29T08:06:39;19.00;64.00
13707;DHT22;6925;47.816;13.072;2023-05-29T08:09:08;19.00;64.30
13707;DHT22;6925;47.816;13.072;2023-05-29T08:11:35;19.10;64.20
13707;DHT22;6925;47.816;13.072;2023-05-29T08:14:03;19.10;63.80
13707;DHT22;6925;47.816;13.072;2023-05-29T08:16:29;19.20;63.80
13707;DHT22;6925;47.816;13.072;2023-05-29T08:18:57;19.20;64.30
13707;DHT22;6925;47.816;13.072;2023-05-29T08:21:25;19.20;63.70
13707;DHT22;6925;47.816;13.072;2023-05-29T08:23:52;19.20;64.10
13707;DHT22;6925;47.816;13.072;2023-05-29T08:26:19;19.20;63.60
13707;DHT22;6925;47.816;13.072;2023-05-29T08:28:46;19.30;63.80
13707;DHT22;6925;47.816;13.072;2023-05-29T08:31:13;19.30;63.30
13707;DHT22;6925;47.816;13.072;2023-05-29T08:33:40;19.40;63.20
13707;DHT22;6925;47.816;13.072;2023-05-29T08:36:07;19.40;63.30
13707;DHT22;6925;47.816;13.072;2023-05-29T08:38:36;19.50;63.50
13707;DHT22;6925;47.816;13.072;2023-05-29T08:41:04;19.60;62.50
13707;DHT22;6925;47.816;13.072;2023-05-29T08:43:34;19.70;63.50
13707;DHT22;6925;47.816;13.072;2023-05-29T08:46:03;19.80;64.00
13707;DHT22;6925;47.816;13.072;2023-05-29T08:48:30;19.90;62.20
13707;DHT22;6925;47.816;13.072;2023-05-29T08:50:59;20.00;62.60
13707;DHT22;6925;47.816;13.072;2023-05-29T08:53:27;20.10;62.40
13707;DHT22;6925;47.816;13.072;2023-05-29T08:55:56;20.30;62.80
13707;DHT22;6925;47.816;13.072;2023-05-29T08:58:25;20.40;60.50
13707;DHT22;6925;47.816;13.072;2023-05-29T09:00:52;20.40;61.30
13707;DHT22;6925;47.816;13.072;2023-05-29T09:03:20;20.50;60.50
13707;DHT22;6925;47.816;13.072;2023-05-29T09:05:47;20.60;62.00
13707;DHT22;6925;47.816;13.072;2023-05-29T09:08:15;20.70;59.10
13707;DHT22;6925;47.816;13.072;2023-05-29T09:10:43;20.70;59.00
13707;DHT22;6925;47.816;13.072;2023-05-29T09:13:12;20.80;59.50
13707;DHT22;6925;47.816;13.072;2023-05-29T09:15:40;20.90;59.50
13707;DHT22;6925;47.816;13.072;2023-05-29T09:18:09;21.10;59.30
13707;DHT22;6925;47.816;13.072;2023-05-29T09:20:36;21.30;58.80
13707;DHT22;6925;47.816;13.072;2023-05-29T09:23:05;21.40;58.50
13707;DHT22;6925;47.816;13.072;2023-05-29T09:25:33;21.60;58.30
13707;DHT22;6925;47.816;13.072;2023-05-29T09:28:02;21.70;58.40
13707;DHT22;6925;47.816;13.072;2023-05-29T09:30:35;21.80;57.10
13707;DHT22;6925;47.816;13.072;2023-05-29T09:33:03;21.90;56.00
13707;DHT22;6925;47.816;13.072;2023-05-29T09:35:35;22.00;56.80
13707;DHT22;6925;47.816;13.072;2023-05-29T09:38:03;22.20;56.10
13707;DHT22;6925;47.816;13.072;2023-05-29T09:40:31;22.40;54.50
13707;DHT22;6925;47.816;13.072;2023-05-29T09:43:03;22.50;53.90
13707;DHT22;6925;47.816;13.072;2023-05-29T09:45:37;22.60;52.80
13707;DHT22;6925;47.816;13.072;2023-05-29T09:48:06;22.70;54.20
13707;DHT22;6925;47.816;13.072;2023-05-29T09:50:34;22.90;54.10
13707;DHT22;6925;47.816;13.072;2023-05-29T09:53:01;23.00;52.30
13707;DHT22;6925;47.816;13.072;2023-05-29T09:55:31;23.10;51.60
13707;DHT22;6925;47.816;13.072;2023-05-29T09:57:59;23.20;50.90
13707;DHT22;6925;47.816;13.072;2023-05-29T10:00:28;23.30;48.80
13707;DHT22;6925;47.816;13.072;2023-05-29T10:02:58;23.30;49.80
13707;DHT22;6925;47.816;13.072;2023-05-29T10:05:25;23.50;49.90
13707;DHT22;6925;47.816;13.072;2023-05-29T10:07:54;23.60;50.00
13707;DHT22;6925;47.816;13.072;2023-05-29T10:10:21;23.80;50.00
13707;DHT22;6925;47.816;13.072;2023-05-29T10:12:51;23.90;49.60
13707;DHT22;6925;47.816;13.072;2023-05-29T10:15:18;24.10;48.00
13707;DHT22;6925;47.816;13.072;2023-05-29T10:17:50;24.10;48.70
13707;DHT22;6925;47.816;13.072;2023-05-29T10:20:22;24.30;48.30
13707;DHT22;6925;47.816;13.072;2023-05-29T10:22:51;24.40;47.70
13707;DHT22;6925;47.816;13.072;2023-05-29T10:25:19;24.50;47.30
13707;DHT22;6925;47.816;13.072;2023-05-29T10:27:47;24.60;46.90
13707;DHT22;6925;47.816;13.072;2023-05-29T10:30:25;24.70;46.90
13707;DHT22;6925;47.816;13.072;2023-05-29T10:33:08;24.90;47.90
13707;DHT22;6925;47.816;13.072;2023-05-29T10:35:45;25.00;45.20
13707;DHT22;6925;47.816;13.072;2023-05-29T10:38:14;25.10;46.70
13707;DHT22;6925;47.816;13.072;2023-05-29T10:40:44;25.10;45.20
13707;DHT22;6925;47.816;13.072;2023-05-29T10:43:29;25.10;45.60
13707;DHT22;6925;47.816;13.072;2023-05-29T10:45:56;25.20;44.20
13707;DHT22;6925;47.816;13.072;2023-05-29T10:48:42;25.30;43.00
13707;DHT22;6925;47.816;13.072;2023-05-29T10:51:26;25.40;43.20
13707;DHT22;6925;47.816;13.072;2023-05-29T10:53:54;25.40;42.30
13707;DHT22;6925;47.816;13.072;2023-05-29T10:56:22;25.40;42.30
13707;DHT22;6925;47.816;13.072;2023-05-29T10:58:56;25.20;40.70
13707;DHT22;6925;47.816;13.072;2023-05-29T11:01:23;25.20;43.40
13707;DHT22;6925;47.816;13.072;2023-05-29T11:03:51;25.30;43.50
13707;DHT22;6925;47.816;13.072;2023-05-29T11:06:20;25.50;43.20
13707;DHT22;6925;47.816;13.072;2023-05-29T11:08:55;25.50;42.80
13707;DHT22;6925;47.816;13.072;2023-05-29T11:11:30;25.40;42.30
13707;DHT22;6925;47.816;13.072;2023-05-29T11:14:02;25.40;42.70
13707;DHT22;6925;47.816;13.072;2023-05-29T11:16:37;25.50;43.10
13707;DHT22;6925;47.816;13.072;2023-05-29T11:19:05;25.60;42.20
13707;DHT22;6925;47.816;13.072;2023-05-29T11:21:49;25.60;42.20
13707;DHT22;6925;47.816;13.072;2023-05-29T11:24:23;25.60;42.50
13707;DHT22;6925;47.816;13.072;2023-05-29T11:26:51;25.60;42.10
13707;DHT22;6925;47.816;13.072;2023-05-29T11:29:21;25.70;43.80
13707;DHT22;6925;47.816;13.072;2023-05-29T11:31:53;25.80;41.60
13707;DHT22;6925;47.816;13.072;2023-05-29T11:34:22;25.80;42.70
13707;DHT22;6925;47.816;13.072;2023-05-29T11:36:51;25.90;40.20
13707;DHT22;6925;47.816;13.072;2023-05-29T11:39:19;26.00;41.80
13707;DHT22;6925;47.816;13.072;2023-05-29T11:41:51;26.00;41.60
13707;DHT22;6925;47.816;13.072;2023-05-29T11:44:19;26.10;40.60
13707;DHT22;6925;47.816;13.072;2023-05-29T11:46:46;26.20;41.40
13707;DHT22;6925;47.816;13.072;2023-05-29T11:49:13;26.30;40.70
13707;DHT22;6925;47.816;13.072;2023-05-29T11:51:42;26.30;41.20
13707;DHT22;6925;47.816;13.072;2023-05-29T11:54:12;26.50;38.80
13707;DHT22;6925;47.816;13.072;2023-05-29T11:56:39;26.60;38.90
13707;DHT22;6925;47.816;13.072;2023-05-29T11:59:11;26.70;38.00
13707;DHT22;6925;47.816;13.072;2023-05-29T12:01:38;26.80;39.10
13707;DHT22;6925;47.816;13.072;2023-05-29T12:04:14;27.20;40.90
13707;DHT22;6925;47.816;13.072;2023-05-29T12:06:42;27.40;38.90
13707;DHT22;6925;47.816;13.072;2023-05-29T12:09:23;27.50;36.10
13707;DHT22;6925;47.816;13.072;2023-05-29T12:11:51;27.50;37.30
13707;DHT22;6925;47.816;13.072;2023-05-29T12:14:20;27.60;37.80
13707;DHT22;6925;47.816;13.072;2023-05-29T12:16:48;27.60;37.30
13707;DHT22;6925;47.816;13.072;2023-05-29T12:19:16;27.60;36.90
13707;DHT22;6925;47.816;13.072;2023-05-29T12:21:43;27.70;35.20
13707;DHT22;6925;47.816;13.072;2023-05-29T12:24:10;28.00;36.10
13707;DHT22;6925;47.816;13.072;2023-05-29T12:26:37;28.10;36.60
13707;DHT22;6925;47.816;13.072;2023-05-29T12:29:05;28.20;37.00
13707;DHT22;6925;47.816;13.072;2023-05-29T12:31:34;28.40;37.70
13707;DHT22;6925;47.816;13.072;2023-05-29T12:34:02;28.40;36.80
13707;DHT22;6925;47.816;13.072;2023-05-29T12:36:29;28.40;34.50
13707;DHT22;6925;47.816;13.072;2023-05-29T12:38:58;28.50;35.20
13707;DHT22;6925;47.816;13.072;2023-05-29T12:41:27;28.70;33.60
13707;DHT22;6925;47.816;13.072;2023-05-29T12:43:55;28.90;37.10
13707;DHT22;6925;47.816;13.072;2023-05-29T12:46:23;29.00;34.10
13707;DHT22;6925;47.816;13.072;2023-05-29T12:48:54;29.00;35.00
13707;DHT22;6925;47.816;13.072;2023-05-29T12:51:25;29.00;34.20
13707;DHT22;6925;47.816;13.072;2023-05-29T12:53:52;29.00;34.00
13707;DHT22;6925;47.816;13.072;2023-05-29T12:56:21;29.10;30.80
13707;DHT22;6925;47.816;13.072;2023-05-29T12:58:49;29.30;32.70
13707;DHT22;6925;47.816;13.072;2023-05-29T13:01:17;29.30;33.10
13707;DHT22;6925;47.816;13.072;2023-05-29T13:03:44;29.30;33.60
13707;DHT22;6925;47.816;13.072;2023-05-29T13:06:12;29.30;33.70
13707;DHT22;6925;47.816;13.072;2023-05-29T13:08:39;29.40;33.20
13707;DHT22;6925;47.816;13.072;2023-05-29T13:11:07;29.50;31.70
13707;DHT22;6925;47.816;13.072;2023-05-29T13:13:34;29.60;32.40
13707;DHT22;6925;47.816;13.072;2023-05-29T13:16:01;29.60;32.70
13707;DHT22;6925;47.816;13.072;2023-05-29T13:18:28;29.70;32.40
13707;DHT22;6925;47.816;13.072;2023-05-29T13:20:55;29.80;30.10
13707;DHT22;6925;47.816;13.072;2023-05-29T13:23:24;29.80;29.10
13707;DHT22;6925;47.816;13.072;2023-05-29T13:25:51;29.90;30.20
13707;DHT22;6925;47.816;13.072;2023-05-29T13:28:18;30.00;28.70
13707;DHT22;6925;47.816;13.072;2023-05-29T13:30:46;30.00;29.70
13707;DHT22;6925;47.816;13.072;2023-05-29T13:33:13;30.10;28.90
13707;DHT22;6925;47.816;13.072;2023-05-29T13:35:40;30.20;30.90
13707;DHT22;6925;47.816;13.072;2023-05-29T13:38:07;30.40;29.80
13707;DHT22;6925;47.816;13.072;2023-05-29T13:40:36;30.50;28.20
13707;DHT22;6925;47.816;13.072;2023-05-29T13:43:03;30.50;29.00
13707;DHT22;6925;47.816;13.072;2023-05-29T13:45:30;30.50;29.40
13707;DHT22;6925;47.816;13.072;2023-05-29T13:47:57;30.50;30.00
13707;DHT22;6925;47.816;13.072;2023-05-29T13:50:24;30.60;30.70
13707;DHT22;6925;47.816;13.072;2023-05-29T13:52:52;30.70;28.90
13707;DHT22;6925;47.816;13.072;2023-05-29T13:55:19;30.70;28.70
13707;DHT22;6925;47.816;13.072;2023-05-29T13:57:48;30.70;28.60
13707;DHT22;6925;47.816;13.072;2023-05-29T14:00:15;30.70;27.00
13707;DHT22;6925;47.816;13.072;2023-05-29T14:02:43;30.50;28.70
13707;DHT22;6925;47.816;13.072;2023-05-29T14:05:10;30.50;27.00
13707;DHT22;6925;47.816;13.072;2023-05-29T14:07:37;30.60;26.80
13707;DHT22;6925;47.816;13.072;2023-05-29T14:10:05;30.60;25.80
13707;DHT22;6925;47.816;13.072;2023-05-29T14:12:32;30.50;26.50
13707;DHT22;6925;47.816;13.072;2023-05-29T14:15:01;30.50;25.40
13707;DHT22;6925;47.816;13.072;2023-05-29T14:17:28;30.40;25.70
13707;DHT22;6925;47.816;13.072;2023-05-29T14:19:55;30.50;27.10
13707;DHT22;6925;47.816;13.072;2023-05-29T14:22:22;30.50;25.30
13707;DHT22;6925;47.816;13.072;2023-05-29T14:24:49;30.40;26.40
13707;DHT22;6925;47.816;13.072;2023-05-29T14:27:16;30.40;26.70
13707;DHT22;6925;47.816;13.072;2023-05-29T14:29:43;30.50;27.10
13707;DHT22;6925;47.816;13.072;2023-05-29T14:32:13;30.60;27.50
13707;DHT22;6925;47.816;13.072;2023-05-29T14:34:40;30.60;26.70
13707;DHT22;6925;47.816;13.072;2023-05-29T14:37:07;30.70;27.60
13707;DHT22;6925;47.816;13.072;2023-05-29T14:39:34;30.70;25.70
13707;DHT22;6925;47.816;13.072;2023-05-29T14:42:01;30.60;26.40
13707;DHT22;6925;47.816;13.072;2023-05-29T14:44:28;30.50;26.40
13707;DHT22;6925;47.816;13.072;2023-05-29T14:46:55;30.40;24.60
13707;DHT22;6925;47.816;13.072;2023-05-29T14:49:23;30.20;25.70
13707;DHT22;6925;47.816;13.072;2023-05-29T14:51:53;30.20;25.50
13707;DHT22;6925;47.816;13.072;2023-05-29T14:54:20;30.20;26.00
13707;DHT22;6925;47.816;13.072;2023-05-29T14:56:47;30.20;26.40
13707;DHT22;6925;47.816;13.072;2023-05-29T14:59:14;30.30;26.60
13707;DHT22;6925;47.816;13.072;2023-05-29T15:01:41;30.30;24.50
13707;DHT22;6925;47.816;13.072;2023-05-29T15:04:09;30.30;26.20
13707;DHT22;6925;47.816;13.072;2023-05-29T15:06:38;30.30;25.20
13707;DHT22;6925;47.816;13.072;2023-05-29T15:09:05;30.40;24.80
13707;DHT22;6925;47.816;13.072;2023-05-29T15:11:32;30.40;25.40
13707;DHT22;6925;47.816;13.072;2023-05-29T15:13:59;30.40;25.60
13707;DHT22;6925;47.816;13.072;2023-05-29T15:16:26;30.40;25.50
13707;DHT22;6925;47.816;13.072;2023-05-29T15:18:54;30.30;26.10
13707;DHT22;6925;47.816;13.072;2023-05-29T15:21:21;30.20;24.70
13707;DHT22;6925;47.816;13.072;2023-05-29T15:23:49;30.20;25.20
13707;DHT22;6925;47.816;13.072;2023-05-29T15:26:16;30.20;24.50
13707;DHT22;6925;47.816;13.072;2023-05-29T15:28:43;30.20;24.50
13707;DHT22;6925;47.816;13.072;2023-05-29T15:31:10;30.10;24.20
13707;DHT22;6925;47.816;13.072;2023-05-29T15:33:37;30.10;24.60
13707;DHT22;6925;47.816;13.072;2023-05-29T15:36:06;30.00;24.80
13707;DHT22;6925;47.816;13.072;2023-05-29T15:38:33;30.00;24.90